New Cumberland, West Virginia
Current Conditions -  °F | °C
As of 1:51 AM on Sunday 23 Nov 2014 (Local Time) from KPIT Reporting Station
Overcast Overcast  
Wind Chill: 50°   Ceiling: 15000
Heat Index: 50°   Visibility: 10mi
Dew Point: 27°   Wind: 7mph
Humidity: 41%   Direction: 210°SSW
Pressure: 30.09"   Gusts: NA
Location:  40.5°N, 80.61°W
Report Text: KPIT 230651Z 21006KT 10SM FEW100 BKN150 OVC200 10/M03 A3009 RMK AO2 SLP201 T01001028
Loading
Personal Weather Stations






























Interactive Weather Map New forecast layout! Learn more

10-Day Weather Forecast

Advertisements
Track Severe Weather on mobile